Motte Rimrock Reserve, California Weather observations

Data are for 10 minute period ending at time listed.
 Day   Time   Solar   Ave.   Ave.  Ave.  Vector  Max.   Baro.   Total    
  of    of     Rad.   Air    Rel.  Wind   Wind   Wind  Press.  Precip.   
Year   Day            Temp.  Hum.  Speed  Dir.   Gust                    
2015   (PST)  Kw/m2    F      %     mph   deg.    mph    mb.     in.     
-------------------------------------------------------------------------
 115   17:30   0.05   55.0    77   19.5   260    27.9   941.7    0.00 
 115   17:40   0.05   55.1    78   12.9   259    22.1   942.2    0.00 
 115   17:50   0.02   55.1    78   12.3   259    18.3   942.4    0.00 
 115   18:00   0.03   55.1    78   16.9   261    22.5   942.3    0.00 
 115   18:10   0.03   54.9    78   15.6   263    21.6   942.4    0.00 
 115   18:20   0.02   54.7    78   10.9   262    19.1   942.6    0.00 
 115   18:30   0.00   54.5    79    9.4   267    17.6   942.8    0.00 
 115   18:40   0.00   54.4    79    7.2   266    11.2   943.0    0.00 
 115   18:50   0.00   54.1    79    3.0   283     5.8   943.1    0.00 
 115   19:00   0.00   53.9    80    3.9   318     6.2   943.2    0.00 
 115   19:10   0.00   53.9    81    3.1   334     4.7   943.3    0.00 
 115   19:20   0.00   53.8    83    3.7   353     5.9   943.5    0.00 
 115   19:30   0.00   53.6    84    4.1   344     6.4   943.6    0.00 
 115   19:40   0.00   53.3    85    5.8   321     9.2   943.7    0.00 
 115   19:50   0.00   52.6    86    7.1   302     9.3   943.6    0.00 
 115   20:00   0.00   51.9    88    6.8   313     8.8   943.7    0.00 
 115   20:10   0.00   51.2    89    6.1   313     7.7   943.8    0.00 
 115   20:20   0.00   51.0    89    7.1   300     9.1   943.8    0.00 
 115   20:30   0.00   50.8    90    6.0   304     7.4   944.0    0.00 
 115   20:40   0.00   50.5    90    5.0   301     6.8   944.2    0.00 
 115   20:50   0.00   50.5    90    3.2   306     4.1   944.2    0.00 
 115   21:00   0.00   50.7    90    3.1   320     5.5   944.3    0.00 
 115   21:10   0.00   49.8    90    4.5   319     6.4   944.3    0.00 
 115   21:20   0.00   49.2    91    1.9   236     4.1   944.4    0.00 
 115   21:30   0.00   49.5    92    1.7   204     3.0   944.5    0.00 
 115   21:40   0.00   49.9    92    1.4    89     3.3   944.7    0.00 
 115   21:50   0.00   50.3    92    2.3   115     2.9   944.7    0.00 
 115   22:00   0.00   50.6    91    4.7    88     6.9   944.6    0.00 
 115   22:10   0.00   50.6    91    5.3    90     6.6   944.7    0.00 
 115   22:20   0.00   50.4    91    3.8   106     4.8   944.8    0.00 
 115   22:30   0.00   50.4    90    3.2   123     4.5   944.7    0.00 
 115   22:40   0.00   50.4    90    3.9   142     5.3   944.7    0.00 
 115   22:50   0.00   50.4    90    4.6   142     8.0   944.7    0.00 
 115   23:00   0.00   50.1    90    6.3   145     8.2   944.6    0.00 
 115   23:10   0.00   50.0    91    4.8   165     6.7   944.7    0.00 
 115   23:20   0.00   49.9    92    6.5   148    10.4   944.9    0.00 
 115   23:30   0.00   49.9    92    6.1   154     8.8   944.9    0.00 
 115   23:40   0.00   49.9    92    5.7   168     7.4   945.0    0.00 
 115   23:50   0.00   49.8    91    5.0   188     7.3   945.0    0.00 
 116    0:00   0.00   49.6    91    4.4   210     5.6   945.0    0.00 
 116    0:10   0.00   49.2    92    5.1   200     5.6   944.8    0.00 
 116    0:20   0.00   49.1    92    5.2   197     6.5   944.7    0.00 
 116    0:30   0.00   49.1    93    5.1   190     6.4   944.7    0.00 
 116    0:40   0.00   49.0    93    4.7   206     5.7   944.8    0.00 
 116    0:50   0.00   48.6    93    5.6   187     6.7   944.8    0.00 
 116    1:00   0.00   48.6    93    5.0   188     6.0   944.7    0.00 
 116    1:10   0.00   48.2    94    7.8   194     9.2   944.6    0.00 
 116    1:20   0.00   48.0    94    7.8   203     9.3   944.5    0.00 
 116    1:30   0.00   47.7    94    6.0   196     6.9   944.4    0.00 
 116    1:40   0.00   47.6    94    5.8   196     6.8   944.4    0.00 
 116    1:50   0.00   47.5    95    3.9   184     5.3   944.5    0.00 
 116    2:00   0.00   47.0    95    4.4   163     5.1   944.6    0.00 
 116    2:10   0.00   47.2    95    4.2   152     5.4   944.6    0.00 
 116    2:20   0.00   47.2    95    6.2   153     7.7   944.7    0.00 
 116    2:30   0.00   47.5    95    5.7   161     7.2   944.8    0.00 
 116    2:40   0.00   47.4    95    6.7   169     8.2   944.7    0.00 
 116    2:50   0.00   47.3    96    6.3   180     8.6   944.7    0.00 
 116    3:00   0.00   47.2    97    6.5   176     8.4   944.8    0.00 
 116    3:10   0.00   47.0    97    6.7   179     8.1   945.0    0.00 
 116    3:20   0.00   47.0    98    7.0   185     8.4   945.0    0.00 
 116    3:30   0.00   47.2    98    6.0   172     7.4   944.9    0.00 
 116    3:40   0.00   47.4    98    5.3   159     6.7   945.1    0.00 
 116    3:50   0.00   47.5    99    6.2   157     8.6   945.1    0.00 
 116    4:00   0.00   47.5    99    6.4   165     7.5   945.1    0.00 
 116    4:10   0.00   47.5    99    6.6   167     9.2   945.2    0.00 
 116    4:20   0.00   47.5    99    6.8   178     8.9   945.2    0.00 
 116    4:30   0.00   47.6    99    6.1   173     8.5   945.3    0.00 
 116    4:40   0.00   47.6    99    5.6   178     7.8   945.4    0.00 
 116    4:50   0.00   47.6    99    5.3   171     7.0   945.5    0.00 
 116    5:00   0.00   47.6    99    4.8   153     5.8   945.7    0.00 
 116    5:10   0.00   47.9    99    5.7   148     7.6   945.8    0.00 
 116    5:20   0.00   47.9    99    5.7   142     7.7   945.9    0.00 
 116    5:30   0.01   47.9    99    4.9   151     6.6   946.1    0.00 
 116    5:40   0.03   47.9    99    5.9   156     8.2   946.2    0.00 
 116    5:50   0.04   47.7    99    6.6   170     8.2   946.3    0.00 
 116    6:00   0.05   47.6   100    6.5   176     7.9   946.3    0.00 
 116    6:10   0.07   47.6   100    5.3   192     7.2   946.3    0.00 
 116    6:20   0.14   48.0   100    4.1   209     6.2   946.3    0.00 
 116    6:30   0.12   47.9   100    3.2   192     4.4   946.4    0.00 
 116    6:40   0.12   48.2   100    3.1   158     4.2   946.6    0.00 
 116    6:50   0.12   48.2   100    3.0   168     3.8   946.7    0.00 
 116    7:00   0.17   48.7   100    3.2   149     4.5   946.7    0.00 
 116    7:10   0.27   49.2   100    4.6   159     6.7   946.8    0.00 
 116    7:20   0.28   50.0   100    5.4   165     7.5   946.9    0.00 
 116    7:30   0.32   51.2    90    6.2   168     8.3   946.9    0.00 
 116    7:40   0.33   52.0    84    6.1   162     9.9   947.1    0.00 
 116    7:50   0.44   52.7    82    6.3   152     9.7   947.2    0.00 
 116    8:00   0.47   52.9    80    7.2   160    10.2   947.1    0.00 
 116    8:10   0.53   53.4    79    6.0   175     8.4   947.1    0.00 
 116    8:20   0.52   54.2    76    6.1   181    10.6   947.2    0.00 
 116    8:30   0.61   55.2    74    8.2   141    11.8   947.4    0.00 
 116    8:40   0.61   55.5    74    7.5   148    11.3   947.6    0.00 
 116    8:50   0.55   55.6    73    8.3   161    12.2   947.6    0.00 
 116    9:00   0.70   56.8    69    6.6   163    12.0   947.7    0.00 
 116    9:10   0.72   57.8    66    5.6   188     9.2   947.8    0.00 
 116    9:20   0.74   58.4    64    4.6   187     9.0   947.8    0.00 
 116    9:30   0.79   59.1    62    5.1   206     8.5   947.8    0.00 
 116    9:40   0.81   60.7    59    4.5   245    10.0   947.8    0.00 
 116    9:50   0.84   61.7    56    4.6   210     8.8   947.9    0.00 
 116   10:00   0.87   62.1    52    6.6   296    12.9   948.0    0.00 
 116   10:10   0.88   62.9    48    6.2   309    11.2   947.9    0.00 
 116   10:20   0.89   63.4    47    4.6   315    13.1   947.8    0.00 
 116   10:30   0.92   64.5    44    7.2   310    14.8   947.8    0.00 
 116   10:40   0.93   64.6    42    7.8   328    15.2   947.7    0.00 
 116   10:50   0.93   64.7    43    8.7   328    14.9   947.6    0.00 
 116   11:00   0.95   66.0    38   10.1   316    14.8   947.5    0.00 
 116   11:10   0.97   65.4    39   11.2   304    16.0   947.4    0.00 
 116   11:20   0.97   66.2    38   11.4   303    19.1   947.2    0.00 
 116   11:30   0.98   66.8    36   11.8   309    17.2   947.1    0.00 
 116   11:40   0.96   66.7    36   12.4   308    18.4   947.0    0.00 
 116   11:50   0.96   68.0    35   12.7   300    21.3   946.9    0.00 
 116   12:00   0.98   68.4    31   12.3   306    20.5   946.8    0.00 
 116   12:10   0.98   68.7    32   11.3   304    17.5   946.8    0.00 
 116   12:20   0.97   68.4    32   11.6   298    20.5   946.6    0.00 
 116   12:30   0.96   68.8    33   14.2   293    21.3   946.5    0.00 
 116   12:40   0.96   68.9    34   14.7   299    21.9   946.4    0.00 
 116   12:50   0.94   69.0    34   15.6   293    23.1   946.3    0.00 
 116   13:00   0.94   69.8    29   14.5   297    20.6   946.2    0.00 
 116   13:10   0.89   70.9    28   14.6   305    23.5   946.2    0.00 
 116   13:20   0.84   70.2    30   16.5   292    25.0   946.1    0.00 
 116   13:30   0.89   70.8    28   16.1   297    23.8   946.0    0.00 
 116   13:40   0.87   71.1    29   16.9   294    24.5   946.0    0.00 
 116   13:50   0.77   70.9    28   18.1   306    27.7   945.9    0.00 
 116   14:00   0.79   71.5    27   17.5   299    24.5   945.8    0.00 
 116   14:10   0.79   71.1    28   17.8   293    25.9   945.6    0.00 
 116   14:20   0.78   71.5    27   18.6   300    25.3   945.5    0.00 
 116   14:30   0.75   71.3    27   17.9   286    26.5   945.4    0.00 
 116   14:40   0.72   71.5    28   17.8   294    23.7   945.3    0.00 
 116   14:50   0.71   71.7    28   19.0   292    25.1   945.1    0.00 
 116   15:00   0.70   72.0    28   18.1   285    26.3   944.9    0.00 
 116   15:10   0.65   72.1    30   18.2   293    24.8   944.9    0.00 
 116   15:20   0.63   72.1    30   16.8   293    23.3   944.9    0.00 
 116   15:30   0.63   72.6    31   16.1   286    22.9   944.9    0.00 
 116   15:40   0.58   72.7    29   15.8   302    21.0   944.8    0.00 
 116   15:50   0.51   72.7    30   15.3   299    21.0   944.7    0.00 
 116   16:00   0.40   71.7    32   16.3   304    21.9   944.7    0.00 
 116   16:10   0.34   70.7    35   15.3   303    21.5   944.8    0.00 
 116   16:20   0.29   70.3    36   13.5   302    18.0   944.8    0.00 
 116   16:30   0.38   70.2    38   14.6   307    19.8   944.7    0.00 
 116   16:40   0.32   69.5    38   14.7   310    20.3   944.8    0.00 
 116   16:50   0.27   69.3    39   14.4   312    21.4   944.8    0.00 
 116   17:00   0.24   68.5    40   15.6   312    20.6   944.8    0.00 
 116   17:10   0.18   67.8    41   14.6   319    18.1   944.8    0.00 
 116   17:20   0.16   67.4    40   15.1   311    18.9   944.7    0.00 

Return to Motte Rimrock Reserve graphs page.


Western Regional Climate Center,wrcc@dri.edu